Terminal Aerodrome Forecast
Issued by NWS

Home | Current Version | Previous Version | Text Only | Print | Product List | Glossary On
Versions: 1 2 3 4 5 6 7 8 9 10 11 12 13 14 15 16 17 18 19
000
FTUS43 KDTX 291120
TAFMBS
TAF
KMBS 291120Z 2912/3012 21010KT P6SM SCT045 BKN200
     FM291600 23015G23KT P6SM BKN060
      TEMPO 2918/2922 4SM TSRA SCT035CB BKN050
     FM292300 27010KT P6SM SCT060 BKN200
     FM300100 26006KT P6SM SKC=

USA.gov is the U.S. government's official web portal to all federal, state and local government web resources and services.